Time;durP1;ratioP1;P1;durP2;ratioP2;P2;SDS_P1;SDS_P2;PMS_P1;PMS_P2;Temp;Humidity;BMP_temperature;BMP_pressure;BME280_temperature;BME280_humidity;BME280_pressure;Samples;Min_cycle;Max_cycle;Signal;HPM_P1;HPM_P2
2023/08/27 00:00:42;;;;;;;13.40;12.33;;;20.60;37.20;;;;;;5012029;28;20691;-77
2023/08/27 00:03:07;;;;;;;13.03;11.90;;;20.60;37.20;;;;;;5011485;28;20576;-77
2023/08/27 00:05:33;;;;;;;15.57;14.30;;;20.60;37.40;;;;;;5012605;28;20173;-78
2023/08/27 00:07:58;;;;;;;14.70;13.60;;;20.60;37.50;;;;;;5012317;28;20204;-78
2023/08/27 00:10:24;;;;;;;16.33;15.03;;;20.70;37.40;;;;;;5012796;28;20197;-77
2023/08/27 00:12:49;;;;;;;16.60;15.33;;;20.70;37.60;;;;;;5011309;28;20173;-78
2023/08/27 00:15:15;;;;;;;16.40;14.93;;;20.60;37.60;;;;;;5012401;28;20169;-78
2023/08/27 00:17:41;;;;;;;17.67;16.07;;;20.60;37.80;;;;;;5012665;28;20205;-78
2023/08/27 00:20:09;;;;;;;17.23;15.87;;;20.60;37.90;;;;;;5012600;28;20189;-78
2023/08/27 00:22:35;;;;;;;16.80;15.30;;;20.70;38.00;;;;;;5012896;28;20414;-78
2023/08/27 00:25:01;;;;;;;17.20;15.70;;;20.70;38.30;;;;;;5012977;28;20418;-79
2023/08/27 00:27:26;;;;;;;16.40;14.90;;;20.60;38.40;;;;;;5012305;28;20940;-78
2023/08/27 00:29:52;;;;;;;15.03;13.63;;;20.70;38.70;;;;;;5012201;28;20165;-76
2023/08/27 00:32:17;;;;;;;17.50;15.80;;;20.60;38.40;;;;;;5014346;28;20169;-78
2023/08/27 00:34:43;;;;;;;14.10;12.90;;;20.40;38.80;;;;;;5013345;28;20546;-77
2023/08/27 00:37:09;;;;;;;14.60;13.40;;;20.10;40.40;;;;;;5016358;28;20276;-77
2023/08/27 00:39:36;;;;;;;14.80;13.70;;;20.00;40.90;;;;;;5016337;28;20542;-79
2023/08/27 00:42:04;;;;;;;14.30;13.10;;;20.00;41.20;;;;;;5015521;28;20660;-78
2023/08/27 00:44:30;;;;;;;14.97;13.80;;;20.10;40.40;;;;;;5016503;28;20412;-78
2023/08/27 00:46:55;;;;;;;15.33;13.87;;;20.20;40.50;;;;;;5016527;28;20561;-77
2023/08/27 00:49:21;;;;;;;16.27;14.57;;;20.30;40.60;;;;;;5016567;28;20456;-79
2023/08/27 00:51:47;;;;;;;14.53;13.43;;;20.40;39.60;;;;;;5015499;28;20197;-79
2023/08/27 00:54:13;;;;;;;14.97;13.73;;;20.20;39.70;;;;;;5014553;28;20192;-79
2023/08/27 00:56:43;;;;;;;12.37;11.63;;;19.90;41.30;;;;;;5016539;28;20428;-79
2023/08/27 00:59:09;;;;;;;13.63;12.70;;;19.80;41.80;;;;;;5015954;28;20780;-78
2023/08/27 01:01:35;;;;;;;12.77;11.97;;;19.60;42.90;;;;;;5015687;28;20412;-78
2023/08/27 01:04:01;;;;;;;12.50;11.80;;;19.50;43.70;;;;;;5015508;28;20408;-78
2023/08/27 01:06:27;;;;;;;13.50;12.40;;;19.30;44.60;;;;;;5016026;28;20568;-79
2023/08/27 01:08:58;;;;;;;13.00;12.10;;;19.50;45.00;;;;;;5015815;28;20412;-79
2023/08/27 01:11:39;;;;;;;13.40;12.50;;;19.60;44.30;;;;;;5015842;28;20566;-78
2023/08/27 01:14:08;;;;;;;12.80;11.90;;;19.80;43.50;;;;;;5014929;28;20430;-79
2023/08/27 01:16:35;;;;;;;12.30;11.50;;;20.00;42.70;;;;;;5016103;28;20536;-79
2023/08/27 01:19:01;;;;;;;11.87;11.00;;;20.10;41.90;;;;;;5018137;28;20535;-79
2023/08/27 01:21:29;;;;;;;14.23;13.23;;;20.20;41.30;;;;;;5018258;28;20408;-80
2023/08/27 01:23:55;;;;;;;13.47;12.47;;;20.30;40.60;;;;;;5018236;28;20420;-80
2023/08/27 01:26:45;;;;;;;13.90;12.90;;;20.40;40.60;;;;;;5017720;28;20436;-78
2023/08/27 01:29:17;;;;;;;13.93;12.63;;;20.30;40.60;;;;;;5015859;28;20595;-80
2023/08/27 01:31:51;;;;;;;13.17;12.03;;;20.20;40.50;;;;;;5016636;28;20543;-79
2023/08/27 01:34:18;;;;;;;14.03;12.83;;;20.30;40.60;;;;;;5015731;28;20407;-79
2023/08/27 01:36:44;;;;;;;13.63;12.53;;;20.40;40.60;;;;;;5015115;28;20436;-77
2023/08/27 01:39:13;;;;;;;12.97;12.00;;;20.50;40.20;;;;;;5014644;28;20429;-78
2023/08/27 01:41:39;;;;;;;13.50;12.50;;;20.50;39.90;;;;;;5013678;28;20667;-78
2023/08/27 01:44:05;;;;;;;13.40;12.50;;;20.60;39.30;;;;;;5015017;28;20790;-77
2023/08/27 01:46:30;;;;;;;14.17;13.17;;;20.60;39.20;;;;;;5014616;28;20247;-77
2023/08/27 01:48:56;;;;;;;14.00;13.00;;;20.60;39.00;;;;;;5014768;28;20555;-76
2023/08/27 01:51:22;;;;;;;13.80;12.87;;;20.70;38.90;;;;;;5015096;28;20631;-76
2023/08/27 01:53:47;;;;;;;13.43;12.40;;;20.70;38.70;;;;;;5014624;28;20540;-77
2023/08/27 01:56:13;;;;;;;12.67;11.90;;;20.70;38.70;;;;;;5015029;28;20220;-76
2023/08/27 01:58:38;;;;;;;12.10;11.30;;;20.70;38.90;;;;;;5014884;28;20542;-77
2023/08/27 02:01:04;;;;;;;12.40;11.17;;;20.70;39.20;;;;;;5015204;28;20537;-78
2023/08/27 02:03:29;;;;;;;12.10;11.30;;;20.70;39.70;;;;;;5014367;28;20254;-77
2023/08/27 02:05:55;;;;;;;12.40;11.70;;;20.60;38.50;;;;;;5014467;28;20192;-78
2023/08/27 02:08:20;;;;;;;12.90;12.00;;;20.50;39.50;;;;;;5014455;28;20192;-77
2023/08/27 02:10:49;;;;;;;12.83;11.87;;;20.60;39.60;;;;;;5014962;28;20579;-77
2023/08/27 02:13:15;;;;;;;12.60;11.60;;;20.60;39.40;;;;;;5014564;28;20170;-78
2023/08/27 02:15:43;;;;;;;13.93;12.83;;;20.60;39.10;;;;;;5014385;28;20420;-77
2023/08/27 02:18:08;;;;;;;13.43;12.30;;;20.60;38.80;;;;;;5013873;28;20237;-77
2023/08/27 02:20:34;;;;;;;11.33;10.43;;;20.60;39.10;;;;;;5014428;28;20471;-77
2023/08/27 02:22:59;;;;;;;11.47;10.67;;;20.50;39.00;;;;;;5014628;28;20240;-76
2023/08/27 02:25:25;;;;;;;12.83;11.67;;;20.50;39.10;;;;;;5014967;28;20182;-78
2023/08/27 02:27:50;;;;;;;11.33;10.43;;;20.40;39.00;;;;;;5015293;28;20706;-79
2023/08/27 02:30:16;;;;;;;13.13;12.00;;;20.30;40.50;;;;;;5016232;28;20198;-78
2023/08/27 02:32:41;;;;;;;13.50;12.17;;;20.30;40.60;;;;;;5017138;28;20170;-79
2023/08/27 02:35:07;;;;;;;13.67;12.30;;;20.40;40.60;;;;;;5017222;28;20200;-79
2023/08/27 02:37:33;;;;;;;12.90;12.10;;;20.40;39.90;;;;;;5015820;28;20659;-78
2023/08/27 02:39:58;;;;;;;12.37;11.57;;;20.40;39.90;;;;;;5015285;28;20205;-78
2023/08/27 02:42:24;;;;;;;12.20;11.20;;;20.40;39.70;;;;;;5014804;28;20170;-79
2023/08/27 02:44:49;;;;;;;12.27;11.37;;;20.50;39.60;;;;;;5014134;28;20178;-78
2023/08/27 02:47:15;;;;;;;12.47;11.43;;;20.50;39.40;;;;;;5014347;28;20197;-78
2023/08/27 02:49:41;;;;;;;12.75;11.80;;;20.40;39.60;;;;;;5013169;28;20209;-78
2023/08/27 02:52:06;;;;;;;12.57;11.67;;;20.20;40.50;;;;;;5014326;28;20492;-79
2023/08/27 02:54:32;;;;;;;12.87;11.70;;;20.20;40.50;;;;;;5013540;28;20243;-78
2023/08/27 02:56:57;;;;;;;11.10;10.30;;;20.00;41.10;;;;;;5012876;28;20196;-78
2023/08/27 02:59:23;;;;;;;11.40;10.60;;;19.90;42.20;;;;;;5011443;28;20231;-77
2023/08/27 03:01:51;;;;;;;11.17;10.50;;;20.00;42.10;;;;;;5013368;28;20353;-77
2023/08/27 03:04:17;;;;;;;10.43;9.73;;;20.10;41.40;;;;;;5013648;28;20173;-78
2023/08/27 03:06:42;;;;;;;10.83;9.73;;;20.20;40.90;;;;;;5012557;28;20436;-78
2023/08/27 03:09:08;;;;;;;10.47;9.67;;;20.20;41.30;;;;;;5013561;28;20530;-79
2023/08/27 03:11:33;;;;;;;10.57;9.87;;;20.20;41.60;;;;;;5013486;28;20239;-77
2023/08/27 03:13:59;;;;;;;11.33;10.50;;;20.10;41.70;;;;;;5013762;28;20219;-78
2023/08/27 03:16:24;;;;;;;10.87;10.07;;;20.10;42.30;;;;;;5013157;28;20196;-77
2023/08/27 03:18:50;;;;;;;10.83;9.97;;;20.00;43.20;;;;;;5012827;28;20186;-78
2023/08/27 03:21:15;;;;;;;10.87;10.17;;;20.00;43.90;;;;;;5012907;28;20231;-78
2023/08/27 03:23:41;;;;;;;10.90;10.30;;;19.90;44.70;;;;;;5012852;28;20248;-78
2023/08/27 03:26:07;;;;;;;10.93;10.23;;;19.90;45.10;;;;;;5011585;28;20199;-79
2023/08/27 03:28:33;;;;;;;11.07;10.40;;;19.90;44.50;;;;;;5012316;28;20174;-78
2023/08/27 03:31:01;;;;;;;12.13;11.23;;;20.00;45.20;;;;;;5012261;28;20482;-78
2023/08/27 03:33:31;;;;;;;11.70;10.73;;;19.80;44.90;;;;;;5012238;28;20235;-79
2023/08/27 03:35:57;;;;;;;10.90;10.20;;;19.50;47.10;;;;;;5012462;28;20503;-77
2023/08/27 03:38:23;;;;;;;11.03;10.33;;;19.60;47.60;;;;;;5012156;28;20409;-79
2023/08/27 03:40:50;;;;;;;11.83;10.93;;;19.60;47.00;;;;;;5012079;28;20412;-79
2023/08/27 03:43:16;;;;;;;10.77;9.97;;;19.60;47.40;;;;;;5012278;28;20902;-78
2023/08/27 03:45:42;;;;;;;12.40;11.20;;;19.70;47.90;;;;;;5012439;28;20412;-78
2023/08/27 03:48:08;;;;;;;10.77;10.07;;;19.60;46.50;;;;;;5011810;28;20435;-78
2023/08/27 03:50:36;;;;;;;11.00;10.20;;;19.70;47.50;;;;;;5012131;28;20715;-78
2023/08/27 03:53:02;;;;;;;12.40;11.40;;;19.60;45.90;;;;;;5010792;28;20177;-78
2023/08/27 03:55:27;;;;;;;11.47;10.53;;;19.60;46.50;;;;;;5012172;28;20431;-78
2023/08/27 03:57:53;;;;;;;11.00;10.00;;;19.70;47.00;;;;;;5011715;28;20444;-77
2023/08/27 04:00:18;;;;;;;10.63;10.03;;;19.70;45.90;;;;;;5012106;28;20178;-77
2023/08/27 04:02:44;;;;;;;10.53;9.60;;;19.80;46.30;;;;;;5012193;28;20177;-77
2023/08/27 04:05:10;;;;;;;11.13;10.33;;;19.90;45.80;;;;;;5010816;28;20180;-77
2023/08/27 04:07:36;;;;;;;9.67;9.07;;;19.90;46.00;;;;;;5010609;28;20491;-77
2023/08/27 04:10:04;;;;;;;10.13;9.50;;;19.90;46.10;;;;;;5013072;28;20976;-76
2023/08/27 04:12:33;;;;;;;8.70;8.20;;;19.90;47.30;;;;;;5016947;28;20227;-79
2023/08/27 04:14:58;;;;;;;9.67;9.00;;;19.90;45.50;;;;;;5016206;28;20472;-79
2023/08/27 04:17:24;;;;;;;9.53;8.93;;;19.80;45.70;;;;;;5016658;28;20455;-78
2023/08/27 04:19:49;;;;;;;9.30;8.70;;;19.70;46.00;;;;;;5014861;28;20177;-79
2023/08/27 04:22:15;;;;;;;8.67;8.03;;;19.50;47.40;;;;;;5015111;28;20173;-78
2023/08/27 04:24:42;;;;;;;9.17;8.57;;;19.40;47.60;;;;;;5016511;28;20178;-79
2023/08/27 04:27:08;;;;;;;9.07;8.47;;;19.10;47.50;;;;;;5016296;28;20679;-78
2023/08/27 04:29:33;;;;;;;9.30;8.70;;;19.00;48.30;;;;;;5016032;28;20419;-79
2023/08/27 04:31:59;;;;;;;9.07;8.37;;;19.10;49.10;;;;;;5016356;28;20801;-79
2023/08/27 04:34:24;;;;;;;7.57;7.07;;;19.20;48.90;;;;;;5016528;28;20165;-79
2023/08/27 04:36:50;;;;;;;8.27;7.77;;;19.40;49.40;;;;;;5016491;28;20544;-78
2023/08/27 04:39:15;;;;;;;7.00;6.70;;;19.50;48.80;;;;;;5016834;28;20165;-79
2023/08/27 04:41:41;;;;;;;7.93;7.40;;;19.60;48.00;;;;;;5015943;28;20646;-80
2023/08/27 04:44:07;;;;;;;8.10;7.60;;;19.80;47.20;;;;;;5016263;28;20181;-77
2023/08/27 04:46:33;;;;;;;7.20;6.80;;;19.70;45.90;;;;;;5016005;28;20236;-78
2023/08/27 04:48:58;;;;;;;7.30;6.80;;;19.70;45.30;;;;;;5015962;28;20173;-78
2023/08/27 04:51:28;;;;;;;7.80;7.30;;;19.50;47.00;;;;;;5016152;28;20546;-78
2023/08/27 04:53:53;;;;;;;8.80;8.20;;;19.30;48.80;;;;;;5016468;28;20707;-79
2023/08/27 04:56:19;;;;;;;7.10;6.70;;;19.30;49.80;;;;;;5015185;28;20519;-77
2023/08/27 04:58:45;;;;;;;7.60;7.20;;;19.20;49.70;;;;;;5014765;28;20518;-77
2023/08/27 05:01:10;;;;;;;8.20;7.00;;;19.20;49.70;;;;;;5014980;28;20181;-76
2023/08/27 05:03:36;;;;;;;8.27;7.70;;;19.30;49.40;;;;;;5013953;28;20300;-77
2023/08/27 05:06:01;;;;;;;7.40;7.00;;;19.20;49.60;;;;;;5014415;28;20243;-76
2023/08/27 05:08:27;;;;;;;6.77;6.37;;;19.20;49.70;;;;;;5014929;28;20205;-76
2023/08/27 05:10:53;;;;;;;6.93;6.60;;;19.10;49.60;;;;;;5014605;28;20617;-75
2023/08/27 05:13:19;;;;;;;6.60;6.30;;;19.30;49.80;;;;;;5014931;28;20531;-76
2023/08/27 05:15:45;;;;;;;7.30;6.90;;;19.30;48.00;;;;;;5014847;28;20412;-76
2023/08/27 05:18:10;;;;;;;8.83;6.97;;;19.20;48.40;;;;;;5014207;28;20448;-75
2023/08/27 05:20:38;;;;;;;8.40;7.93;;;19.40;48.50;;;;;;5013368;28;20178;-75
2023/08/27 05:23:04;;;;;;;8.17;7.60;;;19.50;47.70;;;;;;5012859;28;20713;-75
2023/08/27 05:25:29;;;;;;;7.80;7.30;;;19.40;46.60;;;;;;5018584;28;20430;-75
2023/08/27 05:27:55;;;;;;;7.70;7.20;;;19.30;48.00;;;;;;5022524;28;20440;-77
2023/08/27 05:30:20;;;;;;;7.20;6.77;;;19.30;49.00;;;;;;5023637;28;20209;-76
2023/08/27 05:32:46;;;;;;;6.93;6.53;;;19.30;47.90;;;;;;5029386;28;20169;-76
2023/08/27 05:35:12;;;;;;;7.50;6.80;;;19.30;47.70;;;;;;5016726;28;20173;-76
2023/08/27 05:37:38;;;;;;;6.70;6.40;;;19.40;46.70;;;;;;5024554;28;20203;-76
2023/08/27 05:40:05;;;;;;;6.40;6.10;;;19.30;46.10;;;;;;5018208;28;20187;-76
2023/08/27 05:42:32;;;;;;;6.83;6.53;;;19.00;46.40;;;;;;5014093;28;20170;-76
2023/08/27 05:44:57;;;;;;;7.07;6.73;;;18.90;47.70;;;;;;5012105;28;20444;-76
2023/08/27 05:47:23;;;;;;;6.70;6.30;;;18.90;48.30;;;;;;5013633;28;20475;-76
2023/08/27 05:49:48;;;;;;;6.30;5.97;;;18.90;49.00;;;;;;5013689;28;20169;-76
2023/08/27 05:52:14;;;;;;;6.70;6.20;;;19.00;49.50;;;;;;5013948;28;20178;-76
2023/08/27 05:54:39;;;;;;;6.97;6.57;;;19.30;48.40;;;;;;5012806;28;20486;-76
2023/08/27 05:57:05;;;;;;;6.50;6.20;;;19.10;47.10;;;;;;5013395;28;20590;-76
2023/08/27 05:59:30;;;;;;;6.27;5.97;;;19.00;47.60;;;;;;5013121;28;20174;-76
2023/08/27 06:01:58;;;;;;;6.87;6.27;;;19.00;48.30;;;;;;5013392;28;20190;-76
2023/08/27 06:04:24;;;;;;;6.27;5.77;;;19.00;48.30;;;;;;5013433;28;20236;-77
2023/08/27 06:06:49;;;;;;;6.20;5.77;;;19.00;47.70;;;;;;5013636;28;20523;-76
2023/08/27 06:09:16;;;;;;;6.60;6.20;;;19.20;47.90;;;;;;5013385;28;20978;-76
2023/08/27 06:11:42;;;;;;;6.23;5.73;;;19.20;47.90;;;;;;5012991;28;20209;-77
2023/08/27 06:14:07;;;;;;;6.20;5.90;;;19.40;47.60;;;;;;5012858;28;20825;-76
2023/08/27 06:16:33;;;;;;;6.67;6.17;;;19.40;46.50;;;;;;5018418;28;20211;-77
2023/08/27 06:18:59;;;;;;;6.97;6.47;;;19.30;46.30;;;;;;5033182;28;20180;-77
2023/08/27 06:21:25;;;;;;;5.90;5.60;;;19.30;45.60;;;;;;5033561;28;20416;-77
2023/08/27 06:23:50;;;;;;;6.20;5.70;;;19.40;45.90;;;;;;5031381;28;20427;-78
2023/08/27 06:26:16;;;;;;;5.87;5.57;;;19.60;46.20;;;;;;5033139;28;20207;-77
2023/08/27 06:28:41;;;;;;;6.27;5.87;;;19.60;45.60;;;;;;5032779;28;20169;-78
2023/08/27 06:31:07;;;;;;;5.33;5.13;;;19.70;45.80;;;;;;5032593;28;20268;-78
2023/08/27 06:33:32;;;;;;;5.50;5.23;;;19.70;45.60;;;;;;5031749;28;20173;-78
2023/08/27 06:35:58;;;;;;;6.23;5.60;;;19.70;45.10;;;;;;5033088;28;20795;-77
2023/08/27 06:38:24;;;;;;;5.80;5.50;;;19.70;45.10;;;;;;5032888;28;20703;-78
2023/08/27 06:40:50;;;;;;;5.80;5.50;;;19.70;44.10;;;;;;5031034;28;20506;-76
2023/08/27 06:43:15;;;;;;;5.83;5.53;;;19.50;43.50;;;;;;5032190;28;20414;-77
2023/08/27 06:45:41;;;;;;;5.97;5.67;;;19.50;43.90;;;;;;5032116;28;20177;-78
2023/08/27 06:48:08;;;;;;;5.53;5.23;;;19.50;44.40;;;;;;5031572;28;20204;-77
2023/08/27 06:50:33;;;;;;;6.03;5.73;;;19.50;44.30;;;;;;5030841;28;20614;-78
2023/08/27 06:52:59;;;;;;;5.77;5.47;;;19.50;44.70;;;;;;5027714;28;20411;-78
2023/08/27 06:55:24;;;;;;;5.30;4.97;;;19.40;44.60;;;;;;5031410;28;20734;-79
2023/08/27 06:58:25;;;;;;;5.37;5.10;;;19.30;45.00;;;;;;5031804;28;20201;-82
2023/08/27 07:00:52;;;;;;;5.03;4.83;;;19.10;46.00;;;;;;5032462;28;20218;-77
2023/08/27 07:03:17;;;;;;;5.87;5.57;;;19.10;47.00;;;;;;5035047;28;20415;-78
2023/08/27 07:05:43;;;;;;;4.30;4.20;;;19.00;47.90;;;;;;5032926;28;20921;-77
2023/08/27 07:08:09;;;;;;;5.10;4.90;;;19.00;47.90;;;;;;5033065;28;20203;-76
2023/08/27 07:10:34;;;;;;;4.73;4.53;;;19.00;47.00;;;;;;5035447;28;20412;-78
2023/08/27 07:13:00;;;;;;;4.53;4.30;;;19.10;46.50;;;;;;5037192;28;20489;-78
2023/08/27 07:15:26;;;;;;;4.43;4.23;;;19.20;46.40;;;;;;5034114;28;20176;-77
2023/08/27 07:17:51;;;;;;;4.83;4.53;;;19.20;46.30;;;;;;5030890;28;20532;-77
2023/08/27 07:20:19;;;;;;;5.17;4.70;;;19.20;46.70;;;;;;5032131;28;20204;-78
2023/08/27 07:22:46;;;;;;;6.63;6.10;;;19.30;45.10;;;;;;5030802;28;20181;-77
2023/08/27 07:25:12;;;;;;;5.13;4.83;;;19.20;44.30;;;;;;5032248;28;20438;-78
2023/08/27 07:27:37;;;;;;;5.30;5.00;;;19.20;44.40;;;;;;5030390;28;20185;-78
2023/08/27 07:30:04;;;;;;;4.80;4.60;;;19.20;44.50;;;;;;5032674;28;20187;-77
2023/08/27 07:32:30;;;;;;;4.80;4.60;;;19.30;44.70;;;;;;5034048;28;20173;-77
2023/08/27 07:34:55;;;;;;;4.40;4.20;;;19.50;44.90;;;;;;5032333;28;20417;-77
2023/08/27 07:37:21;;;;;;;5.47;5.10;;;19.50;43.10;;;;;;5032868;28;20197;-76
2023/08/27 07:39:46;;;;;;;5.37;5.17;;;19.40;42.80;;;;;;5032157;28;20180;-76
2023/08/27 07:42:12;;;;;;;5.43;5.13;;;19.40;43.10;;;;;;5033000;28;20212;-78
2023/08/27 07:44:37;;;;;;;5.27;4.87;;;19.30;42.80;;;;;;5031985;28;20165;-77
2023/08/27 07:47:03;;;;;;;5.27;4.77;;;19.30;43.80;;;;;;5031689;28;20685;-77
2023/08/27 07:49:29;;;;;;;4.87;4.67;;;19.40;44.00;;;;;;5032088;28;20177;-76
2023/08/27 07:51:54;;;;;;;5.40;5.10;;;19.40;43.90;;;;;;5034700;28;20663;-78
2023/08/27 07:54:20;;;;;;;5.40;5.10;;;19.50;44.30;;;;;;5035743;28;20180;-78
2023/08/27 07:56:46;;;;;;;4.93;4.60;;;19.40;44.10;;;;;;5035135;28;20203;-77
2023/08/27 07:59:11;;;;;;;4.97;4.67;;;19.40;44.90;;;;;;5032420;28;20179;-77
2023/08/27 08:01:37;;;;;;;4.83;4.53;;;19.30;44.00;;;;;;5032760;28;20299;-77
2023/08/27 08:04:03;;;;;;;4.70;4.30;;;19.20;44.00;;;;;;5032583;28;20169;-77
2023/08/27 08:06:28;;;;;;;5.10;4.80;;;19.20;45.70;;;;;;5032920;28;20189;-77
2023/08/27 08:08:54;;;;;;;4.20;3.90;;;19.20;46.30;;;;;;5032601;28;20437;-77
2023/08/27 08:11:19;;;;;;;5.13;4.83;;;19.30;45.30;;;;;;5032607;28;20571;-77
2023/08/27 08:13:46;;;;;;;4.97;4.77;;;19.30;45.40;;;;;;5032323;28;20623;-78
2023/08/27 08:16:11;;;;;;;4.93;4.60;;;19.30;45.00;;;;;;5031738;28;20203;-76
2023/08/27 08:18:37;;;;;;;4.97;4.70;;;19.30;43.60;;;;;;5036437;28;20427;-78
2023/08/27 08:21:03;;;;;;;4.43;4.13;;;19.30;44.00;;;;;;5036914;28;20200;-78
2023/08/27 08:23:28;;;;;;;5.00;4.70;;;19.30;44.10;;;;;;5036738;28;20165;-78
2023/08/27 08:25:54;;;;;;;5.83;5.43;;;19.40;43.10;;;;;;5036220;28;20169;-78
2023/08/27 08:28:19;;;;;;;5.10;4.90;;;19.30;43.40;;;;;;5036602;28;20195;-78
2023/08/27 08:30:48;;;;;;;5.70;5.30;;;19.40;43.70;;;;;;5034583;28;20200;-78
2023/08/27 08:33:14;;;;;;;5.50;5.30;;;19.40;42.40;;;;;;5033966;28;20248;-78
2023/08/27 08:35:39;;;;;;;4.80;4.60;;;19.40;43.00;;;;;;5032883;28;20466;-77
2023/08/27 08:38:05;;;;;;;6.60;6.30;;;19.30;42.30;;;;;;5031970;28;20482;-78
2023/08/27 08:40:38;;;;;;;5.43;5.23;;;19.40;42.90;;;;;;5031240;28;20208;-77
2023/08/27 08:43:04;;;;;;;5.97;5.57;;;19.40;42.10;;;;;;5036461;28;20173;-78
2023/08/27 08:45:42;;;;;;;5.87;5.43;;;19.40;42.50;;;;;;5035365;28;20572;-78
2023/08/27 08:48:11;;;;;;;5.00;4.80;;;19.60;42.20;;;;;;5031618;28;20193;-78
2023/08/27 08:50:40;;;;;;;5.37;5.17;;;19.60;41.30;;;;;;5030415;28;20419;-78
2023/08/27 08:53:14;;;;;;;5.40;5.10;;;19.60;41.10;;;;;;5031294;28;20403;-77
2023/08/27 08:55:45;;;;;;;5.57;5.17;;;19.60;40.50;;;;;;5031840;28;20422;-79
2023/08/27 08:58:12;;;;;;;4.73;4.53;;;19.70;40.40;;;;;;5034945;28;20491;-77
2023/08/27 09:00:38;;;;;;;5.37;5.17;;;19.70;40.10;;;;;;5017598;28;20487;-78
2023/08/27 09:03:04;;;;;;;4.33;4.13;;;19.70;40.40;;;;;;5015834;28;20506;-77
2023/08/27 09:05:32;;;;;;;5.70;5.40;;;19.70;40.10;;;;;;5016035;28;20421;-77
2023/08/27 09:07:58;;;;;;;5.43;5.20;;;19.80;40.80;;;;;;5019012;28;20212;-79
2023/08/27 09:10:24;;;;;;;5.03;4.73;;;19.80;40.20;;;;;;5019343;28;20428;-79
2023/08/27 09:12:56;;;;;;;5.40;5.00;;;19.80;40.10;;;;;;5019958;28;20185;-79
2023/08/27 09:15:22;;;;;;;5.00;4.70;;;19.90;40.20;;;;;;5017556;28;20428;-79
2023/08/27 09:17:50;;;;;;;5.10;4.90;;;19.90;40.20;;;;;;5019696;28;20493;-79
2023/08/27 09:20:16;;;;;;;5.63;5.33;;;19.80;39.40;;;;;;5039495;28;20554;-78
2023/08/27 09:22:42;;;;;;;4.60;4.40;;;19.70;40.30;;;;;;5037972;28;20451;-77
2023/08/27 09:25:09;;;;;;;4.80;4.60;;;19.70;40.00;;;;;;5039541;28;20184;-78
2023/08/27 09:27:35;;;;;;;5.10;4.90;;;19.80;40.20;;;;;;5036427;28;20192;-79
2023/08/27 09:30:04;;;;;;;4.53;4.33;;;19.80;40.20;;;;;;5034395;28;20419;-79
2023/08/27 09:32:30;;;;;;;4.37;4.17;;;19.90;40.20;;;;;;5035033;28;21015;-78
2023/08/27 09:35:02;;;;;;;4.90;4.70;;;20.00;40.30;;;;;;5035429;28;20419;-81
2023/08/27 09:37:29;;;;;;;4.90;4.60;;;20.20;40.40;;;;;;5035088;28;20613;-81
2023/08/27 09:39:55;;;;;;;5.13;4.67;;;20.40;40.00;;;;;;5035776;28;20423;-81
2023/08/27 09:42:21;;;;;;;4.93;4.63;;;20.50;39.10;;;;;;5036240;28;20784;-81
2023/08/27 09:44:50;;;;;;;5.23;4.93;;;20.60;38.10;;;;;;5037210;28;20408;-81
2023/08/27 09:47:15;;;;;;;4.50;4.20;;;20.60;37.80;;;;;;5017638;28;20877;-83
2023/08/27 09:49:42;;;;;;;5.23;5.03;;;20.80;38.10;;;;;;5019196;28;20413;-82
2023/08/27 09:52:08;;;;;;;6.07;5.67;;;20.60;37.50;;;;;;5017846;28;20185;-82
2023/08/27 09:54:33;;;;;;;5.57;5.30;;;20.70;38.40;;;;;;5018200;28;20421;-83
2023/08/27 09:57:02;;;;;;;6.03;5.73;;;20.80;37.80;;;;;;5015547;28;20201;-80
2023/08/27 09:59:28;;;;;;;5.87;5.40;;;20.80;36.60;;;;;;5015396;28;20545;-79
2023/08/27 10:01:54;;;;;;;5.60;5.20;;;20.70;35.70;;;;;;5015690;28;20490;-79
2023/08/27 10:04:42;;;;;;;5.20;4.90;;;20.60;35.80;;;;;;5016778;28;20431;-81
2023/08/27 10:07:12;;;;;;;5.57;5.27;;;20.60;35.80;;;;;;5017062;28;20204;-81
2023/08/27 10:09:38;;;;;;;5.70;5.40;;;20.60;34.70;;;;;;5017060;28;20413;-80
2023/08/27 10:12:04;;;;;;;5.20;5.00;;;20.50;35.10;;;;;;5015873;28;20938;-79
2023/08/27 10:14:31;;;;;;;6.83;6.27;;;20.60;34.50;;;;;;5020024;28;20178;-79
2023/08/27 10:16:57;;;;;;;5.83;5.43;;;20.60;34.10;;;;;;5023574;28;21000;-79
2023/08/27 10:19:22;;;;;;;5.90;5.60;;;20.60;33.10;;;;;;5022415;28;20416;-78
2023/08/27 10:21:48;;;;;;;5.60;5.40;;;20.50;32.60;;;;;;5022841;28;20569;-82
2023/08/27 10:24:14;;;;;;;6.00;5.70;;;20.50;31.70;;;;;;5019219;28;20211;-78
2023/08/27 10:26:46;;;;;;;5.00;4.80;;;20.50;32.70;;;;;;5018451;28;20436;-78
2023/08/27 10:29:13;;;;;;;5.67;5.37;;;20.60;32.00;;;;;;5022053;28;20170;-78
2023/08/27 10:31:39;;;;;;;5.20;5.00;;;20.60;31.60;;;;;;5019441;28;20412;-77
2023/08/27 10:34:06;;;;;;;5.87;5.47;;;20.60;30.40;;;;;;5019044;28;20420;-77
2023/08/27 10:36:36;;;;;;;5.47;5.17;;;20.70;30.50;;;;;;5019101;28;20463;-78
2023/08/27 10:39:04;;;;;;;5.70;5.40;;;20.70;30.50;;;;;;5014808;28;20425;-78
2023/08/27 10:41:34;;;;;;;5.73;5.43;;;20.90;30.70;;;;;;5013746;28;20459;-78
2023/08/27 10:44:00;;;;;;;6.70;6.40;;;21.00;30.70;;;;;;5013696;28;20428;-78
2023/08/27 10:46:26;;;;;;;7.03;6.63;;;21.10;30.00;;;;;;5033054;28;20940;-78
2023/08/27 10:49:19;;;;;;;6.70;6.10;;;20.90;29.80;;;;;;5033021;28;20412;-78
2023/08/27 10:51:45;;;;;;;5.93;5.63;;;20.90;29.60;;;;;;5032479;28;20180;-78
2023/08/27 10:54:25;;;;;;;5.93;5.63;;;20.80;29.80;;;;;;5033872;28;20434;-77
2023/08/27 10:56:53;;;;;;;6.97;6.47;;;20.80;30.10;;;;;;5032471;28;20222;-77
2023/08/27 10:59:28;;;;;;;6.03;5.73;;;20.80;30.60;;;;;;5032806;28;20909;-77
2023/08/27 11:01:54;;;;;;;7.00;6.60;;;20.90;28.60;;;;;;5032259;28;20516;-78
2023/08/27 11:04:19;;;;;;;6.70;6.30;;;20.90;28.80;;;;;;5034018;28;20498;-78
2023/08/27 11:06:48;;;;;;;6.83;6.40;;;20.90;29.20;;;;;;5032928;28;20192;-79
2023/08/27 11:09:25;;;;;;;6.10;5.70;;;20.90;29.20;;;;;;5033378;28;20475;-78
2023/08/27 11:12:03;;;;;;;6.43;6.13;;;21.00;29.40;;;;;;5033091;28;20493;-79
2023/08/27 11:14:29;;;;;;;6.77;6.47;;;21.00;29.30;;;;;;5031539;28;20939;-78
2023/08/27 11:17:05;;;;;;;6.53;5.97;;;21.00;28.50;;;;;;5026039;28;20472;-78
2023/08/27 11:19:37;;;;;;;6.50;6.20;;;21.10;28.90;;;;;;5025951;28;20173;-78
2023/08/27 11:22:09;;;;;;;6.27;5.97;;;21.20;28.50;;;;;;5012881;28;20468;-78
2023/08/27 11:24:39;;;;;;;6.20;5.90;;;21.20;27.70;;;;;;5013303;28;20499;-79
2023/08/27 11:27:05;;;;;;;6.37;5.97;;;21.20;28.00;;;;;;5013068;28;20441;-79
2023/08/27 11:29:33;;;;;;;6.53;6.23;;;21.30;27.80;;;;;;5011795;28;20420;-78
2023/08/27 11:32:02;;;;;;;6.40;6.03;;;21.40;26.80;;;;;;5012773;28;20590;-79
2023/08/27 11:34:35;;;;;;;6.73;6.43;;;21.30;26.90;;;;;;5013396;28;20416;-79
2023/08/27 11:37:00;;;;;;;6.03;5.80;;;21.20;28.10;;;;;;5012941;28;20424;-78
2023/08/27 11:39:27;;;;;;;6.30;5.93;;;21.10;27.60;;;;;;5013282;28;20435;-79
2023/08/27 11:41:53;;;;;;;6.50;6.20;;;21.10;27.40;;;;;;5013125;28;20668;-79
2023/08/27 11:44:18;;;;;;;7.17;6.73;;;21.10;27.70;;;;;;5012988;28;20415;-77
2023/08/27 11:46:44;;;;;;;6.70;6.50;;;21.10;28.20;;;;;;5012006;28;20268;-77
2023/08/27 11:49:12;;;;;;;7.33;6.83;;;21.10;28.60;;;;;;5011562;28;20173;-77
2023/08/27 11:51:40;;;;;;;7.20;6.80;;;21.20;28.90;;;;;;5012190;28;20165;-76
2023/08/27 11:54:10;;;;;;;7.90;7.40;;;21.30;29.10;;;;;;5026941;28;20424;-76
2023/08/27 11:56:36;;;;;;;8.10;7.60;;;21.40;28.30;;;;;;5011758;28;20523;-77
2023/08/27 11:59:06;;;;;;;7.80;7.30;;;21.50;28.10;;;;;;5011447;28;20408;-77
2023/08/27 12:01:32;;;;;;;6.80;6.40;;;21.60;27.50;;;;;;5011643;28;20456;-77
2023/08/27 12:03:59;;;;;;;7.23;6.83;;;21.50;26.70;;;;;;5011878;28;20487;-78
2023/08/27 12:06:25;;;;;;;6.93;6.60;;;21.60;26.70;;;;;;5011676;28;20854;-76
2023/08/27 12:08:54;;;;;;;7.87;7.47;;;21.40;26.10;;;;;;5011769;28;20412;-77
2023/08/27 12:11:26;;;;;;;7.73;7.33;;;21.50;27.30;;;;;;5012509;28;20471;-77
2023/08/27 12:13:55;;;;;;;7.57;7.27;;;21.50;27.80;;;;;;5012403;28;20421;-77
2023/08/27 12:16:32;;;;;;;7.40;7.00;;;21.50;26.80;;;;;;5011718;28;20436;-79
2023/08/27 12:19:08;;;;;;;7.20;6.80;;;21.50;27.80;;;;;;5010643;28;20528;-79
2023/08/27 12:21:45;;;;;;;7.07;6.70;;;21.50;27.50;;;;;;5012514;28;20455;-79
2023/08/27 12:24:41;;;;;;;7.30;6.90;;;21.50;27.30;;;;;;5011066;28;20465;-79
2023/08/27 12:27:12;;;;;;;7.70;7.40;;;21.60;27.90;;;;;;5011479;28;20470;-79
2023/08/27 12:29:46;;;;;;;6.80;6.40;;;21.60;27.30;;;;;;5012322;28;20420;-78
2023/08/27 12:32:16;;;;;;;6.10;5.80;;;21.60;26.30;;;;;;5030973;28;20425;-78
2023/08/27 12:34:43;;;;;;;6.40;6.10;;;21.60;26.40;;;;;;5015596;28;20400;-78
2023/08/27 12:37:10;;;;;;;6.70;6.20;;;21.60;26.10;;;;;;5015118;28;20510;-78
2023/08/27 12:39:37;;;;;;;6.83;6.43;;;21.70;25.70;;;;;;5015636;28;20780;-78